Reuben Lasker — WTEG — position and weather

sailwx.info

Track history (hours):
 
Tides and Currents Weather Stations Pressure Air Temp Water Temp Dewpoint Dewpoint Depression Visibility Wind Speed Wind Dir Waves Ship Positions

Oceanographic research ship Reuben Lasker (United States)

Last reported at 2017-Dec-02 00:54 UTC. Time now 2017-Dec-18 18:28 UTC.
Position N 21°18' W 157°54'.
Warning: this ship's position is 16 days out of date.

Length 64 m; draft 6.1 m.

Type: Other ship. MMSI: 369970573.

Wind from 040 at 13 knots

Barometer 1014.7 mb
Water temperature 26.0 ° C

Date/timePositionNaut miles runAvg speedWind from/ knotsBaromVisibWave heightAir tempDewpointWater temp
2017-Dec-02 00:54N 21°18' W 157°54'6 3.0 040 / 131014.7 26.0
2017-Dec-01 22:54N 21°12' W 157°54'0 0.0 020 / 131015.6 26.3
2017-Dec-01 21:54N 21°12' W 157°54'8 8.2 050 / 111017.0 26.5 26.3
2017-Dec-01 20:54N 21°06' W 157°48'8 8.2 050 / 191016.9 26.3 26.2
2017-Dec-01 19:54N 21°12' W 157°42'1111.2 050 / 201017.7 26.4 26.2
2017-Dec-01 18:54N 21°12' W 157°30'8 8.2 060 / 221017.7 27.4 26.4
2017-Dec-01 17:54N 21°18' W 157°24'1312.7 060 / 201017.3 26.5 26.5
2017-Dec-01 16:54N 21°24' W 157°12'1312.7 070 / 211017.1 28.4 26.2
2017-Dec-01 15:54N 21°30' W 157°00'6 5.6 070 / 241016.7 30.0 26.0
2017-Dec-01 14:54N 21°30' W 156°54'1312.7 070 / 161016.6 26.6 25.4
2017-Dec-01 13:54N 21°36' W 156°42'1312.7 060 / 191016.9 27.2 25.9
2017-Dec-01 12:54N 21°42' W 156°30'1312.7 070 / 151017.4 26.8 26.0
2017-Dec-01 11:54N 21°48' W 156°18'8 8.2 060 / 141018.1 26.7 26.0
2017-Dec-01 10:54N 21°54' W 156°12'1312.6 060 / 131018.6 26.3 25.7
2017-Dec-01 09:54N 22°00' W 156°00'1111.3 070 / 121019.1 25.9 25.8
2017-Dec-01 08:55N 22°00' W 155°48'8 8.2 070 / 131019.3 25.8 25.7
2017-Dec-01 07:55N 22°06' W 155°42'1312.6 060 / 131019.7 26.2 25.8
2017-Dec-01 06:55N 22°12' W 155°30'1312.6 070 / 111019.5 26.2 25.9
2017-Dec-01 05:55N 22°18' W 155°18'1312.6 070 / 121019.2 25.6 25.9
2017-Dec-01 04:55N 22°24' W 155°06'8 8.2 070 / 111018.7 25.5 25.8
2017-Dec-01 03:55N 22°30' W 155°00'1111.1 080 / 111017.9 25.5 25.9
2017-Dec-01 02:55N 22°30' W 154°48'8 8.2 090 / 111017.7 25.4 25.9
2017-Dec-01 01:55N 22°36' W 154°42'1312.6 080 / 101017.2 25.5 25.8
2017-Dec-01 00:55N 22°42' W 154°30'18 8.9 090 / 121017.1 25.3 25.6
2017-Nov-30 22:56N 22°48' W 154°12'8 8.3 090 / 141017.8 25.1 24.9
2017-Nov-30 21:57N 22°54' W 154°06'1312.6 080 / 141018.7 25.1 24.9
2017-Nov-30 20:57N 23°00' W 154°18'1111.0 080 / 151019.5 25.0 24.8
2017-Nov-30 19:57N 23°00' W 154°30'1312.6 080 / 171019.7 25.0 24.9
2017-Nov-30 18:57N 23°06' W 154°42'6 5.5 070 / 171019.5 25.0 25.4
2017-Nov-30 17:57N 23°06' W 154°48'1312.6 080 / 191018.9 24.9 25.4
2017-Nov-30 16:57N 23°12' W 155°00'1312.6 070 / 161018.4 25.1 25.5
2017-Nov-30 15:57N 23°18' W 155°12'8 8.1 060 / 211018.0 24.7 25.4
2017-Nov-30 14:57N 23°24' W 155°18'8 8.1 060 / 201017.7 24.7 25.1
2017-Nov-30 13:57N 23°30' W 155°24'8 8.1 060 / 171017.8 24.7 24.8
2017-Nov-30 12:57N 23°36' W 155°30'8 8.1 070 / 171018.1 24.7 25.0
2017-Nov-30 11:57N 23°42' W 155°36'1312.5 090 / 221018.5 24.7 25.0
2017-Nov-30 10:57N 23°48' W 155°48'8 8.1 090 / 201019.0 24.9 25.0
2017-Nov-30 09:57N 23°54' W 155°54'8 8.1 080 / 181019.5 25.0 25.1
2017-Nov-30 08:57N 24°00' W 156°00'8 8.1 070 / 171019.7 25.0 25.1
2017-Nov-30 07:57N 24°06' W 156°06'1212.5 070 / 171019.6 24.9 25.1
2017-Nov-30 06:57N 24°12' W 156°18'8 8.1 080 / 181019.8 24.9 25.0
2017-Nov-30 05:57N 24°18' W 156°24'8 8.1 080 / 171019.6 25.0 24.9
2017-Nov-30 04:57N 24°24' W 156°30'0 0.0 100 / 181019.3 24.9 25.1
2017-Nov-30 03:58N 24°24' W 156°30'5 5.5 080 / 151019.1 26.6 25.0
2017-Nov-30 02:58N 24°24' W 156°24'1212.5 090 / 141018.7 24.8 25.0
2017-Nov-30 01:58N 24°18' W 156°12'1110.9 100 / 171018.1 25.4 25.0
2017-Nov-30 00:58N 24°18' W 156°00'2311.3 080 / 131018.1 25.4 24.9
2017-Nov-29 22:58N 24°12' W 155°36'8 8.1 080 / 141019.2 25.3 25.0
2017-Nov-29 21:58N 24°06' W 155°30'5 5.5 100 / 131020.1 24.9 25.1
2017-Nov-29 20:58N 24°06' W 155°24'0 0.0 070 / 151020.4 24.7 25.1
2017-Nov-29 19:58N 24°06' W 155°24'1111.0 080 / 151020.9 24.6 25.0
2017-Nov-29 18:58N 24°06' W 155°12'1212.5 090 / 161020.6 25.0 25.1
2017-Nov-29 17:58N 24°00' W 155°00'5 5.5 090 / 161020.0 24.6 25.1
2017-Nov-29 16:58N 24°00' W 154°54'5 5.5 090 / 161019.3 24.2 24.9
2017-Nov-29 15:58N 24°00' W 154°48'0 0.0 070 / 181018.5 24.2 24.9
2017-Nov-29 14:58N 24°00' W 154°48'8 8.1 080 / 141018.1 24.3 24.9
2017-Nov-29 13:58N 24°06' W 154°42'8 8.3 080 / 131018.5 24.3 24.9
2017-Nov-29 12:59N 24°00' W 154°48'6 6.0 090 / 151018.3 24.2 24.9
2017-Nov-29 11:59N 23°54' W 154°48'8 8.1 080 / 141018.8 24.1 25.0
2017-Nov-29 10:59N 23°48' W 154°54'6 6.0 080 / 91019.5 23.6 25.0
2017-Nov-29 09:59N 23°42' W 154°54'8 8.1 090 / 231019.6 22.7 25.0
2017-Nov-29 08:59N 23°36' W 155°00'6 6.0 070 / 171019.9 24.4 24.9
2017-Nov-29 07:59N 23°30' W 155°00'8 8.1 080 / 171019.7 24.4 24.9
2017-Nov-29 06:59N 23°24' W 155°06'1313.2 080 / 141019.9 24.7 25.0
2017-Nov-29 05:59N 23°12' W 155°12'6 6.0 070 / 131019.6 24.6 25.4
2017-Nov-29 04:59N 23°06' W 155°12'8 8.2 070 / 111019.2 24.6 25.4
2017-Nov-29 03:59N 23°00' W 155°18'1313.4 070 / 121018.3 24.9 25.6
2017-Nov-29 03:00N 22°48' W 155°24'1212.0 070 / 141017.8 25.0 25.4
2017-Nov-29 02:00N 22°36' W 155°24'6 6.0 060 / 141017.3 25.1 25.4
2017-Nov-29 01:00N 22°30' W 155°24'1313.2 070 / 141016.7 25.2 25.8
2017-Nov-29 00:00N 22°18' W 155°30'6 6.0 060 / 131016.9 25.3 25.8
2017-Nov-28 23:00N 22°12' W 155°30'1212.0 060 / 151017.0 25.2 25.9
2017-Nov-28 22:00N 22°00' W 155°30'1313.2 070 / 151017.9 25.4 26.0
2017-Nov-28 21:00N 21°48' W 155°36'6 6.0 070 / 181018.2 25.7 25.9
2017-Nov-28 20:00N 21°42' W 155°36'1212.0 070 / 181019.0 25.6 26.0
2017-Nov-28 19:00N 21°30' W 155°36'8 8.2 080 / 201018.7 25.4 26.0
2017-Nov-28 18:00N 21°24' W 155°42'   080 / 221018.1 25.4 26.0
2017-Nov-22 11:47N 21°48' W 156°18'1111.1 330 / 91014.9 24.2 26.2
2017-Nov-22 10:47N 21°48' W 156°30'8 8.2 050 / 111015.4 22.5 25.9
2017-Nov-22 09:47N 21°54' W 156°36'1312.6 010 / 111015.7 23.7 25.9
2017-Nov-22 08:47N 22°00' W 156°48'6 5.7 360 / 91015.8 23.9 25.9
2017-Nov-22 07:48N 22°00' W 156°54'8 8.2 020 / 151015.9 23.7 25.9
2017-Nov-22 06:48N 22°06' W 157°00'6 5.6 080 / 91015.8 22.3 25.9
2017-Nov-22 05:48N 22°06' W 157°06'6 6.0 360 / 81015.4 21.4 25.9
2017-Nov-22 04:48N 22°00' W 157°06'6 6.0 050 / 61014.5 22.1 26.0
2017-Nov-22 03:48N 22°06' W 157°06'8 8.2 030 / 121013.6 23.5 26.0
2017-Nov-22 02:48N 22°00' W 157°12'8 8.2 040 / 101013.3 23.7 25.9
2017-Nov-22 01:48N 22°06' W 157°18'   040 / 101013.1 23.4 26.0
Track history (hours):
 
Tides and Currents Weather Stations Pressure Air Temp Water Temp Dewpoint Dewpoint Depression Visibility Wind Speed Wind Dir Waves Ship Positions

Oceanographic research ship Reuben Lasker (United States)

Last reported at 2017-Dec-02 00:54 UTC. Time now 2017-Dec-18 18:28 UTC.
Position N 21°18' W 157°54'.
Warning: this ship's position is 16 days out of date.

Length 64 m; draft 6.1 m.

Type: Other ship. MMSI: 369970573.

Wind from 040 at 13 knots

Barometer 1014.7 mb
Water temperature 26.0 ° C

Date/timePositionNaut miles runAvg speedWind from/ knotsBaromVisibWave heightAir tempDewpointWater temp
2017-Dec-02 00:54N 21°18' W 157°54'6 3.0 040 / 131014.7 26.0
2017-Dec-01 22:54N 21°12' W 157°54'0 0.0 020 / 131015.6 26.3
2017-Dec-01 21:54N 21°12' W 157°54'8 8.2 050 / 111017.0 26.5 26.3
2017-Dec-01 20:54N 21°06' W 157°48'8 8.2 050 / 191016.9 26.3 26.2
2017-Dec-01 19:54N 21°12' W 157°42'1111.2 050 / 201017.7 26.4 26.2
2017-Dec-01 18:54N 21°12' W 157°30'8 8.2 060 / 221017.7 27.4 26.4
2017-Dec-01 17:54N 21°18' W 157°24'1312.7 060 / 201017.3 26.5 26.5
2017-Dec-01 16:54N 21°24' W 157°12'1312.7 070 / 211017.1 28.4 26.2
2017-Dec-01 15:54N 21°30' W 157°00'6 5.6 070 / 241016.7 30.0 26.0
2017-Dec-01 14:54N 21°30' W 156°54'1312.7 070 / 161016.6 26.6 25.4
2017-Dec-01 13:54N 21°36' W 156°42'1312.7 060 / 191016.9 27.2 25.9
2017-Dec-01 12:54N 21°42' W 156°30'1312.7 070 / 151017.4 26.8 26.0
2017-Dec-01 11:54N 21°48' W 156°18'8 8.2 060 / 141018.1 26.7 26.0
2017-Dec-01 10:54N 21°54' W 156°12'1312.6 060 / 131018.6 26.3 25.7
2017-Dec-01 09:54N 22°00' W 156°00'1111.3 070 / 121019.1 25.9 25.8
2017-Dec-01 08:55N 22°00' W 155°48'8 8.2 070 / 131019.3 25.8 25.7
2017-Dec-01 07:55N 22°06' W 155°42'1312.6 060 / 131019.7 26.2 25.8
2017-Dec-01 06:55N 22°12' W 155°30'1312.6 070 / 111019.5 26.2 25.9
2017-Dec-01 05:55N 22°18' W 155°18'1312.6 070 / 121019.2 25.6 25.9
2017-Dec-01 04:55N 22°24' W 155°06'8 8.2 070 / 111018.7 25.5 25.8
2017-Dec-01 03:55N 22°30' W 155°00'1111.1 080 / 111017.9 25.5 25.9
2017-Dec-01 02:55N 22°30' W 154°48'8 8.2 090 / 111017.7 25.4 25.9
2017-Dec-01 01:55N 22°36' W 154°42'1312.6 080 / 101017.2 25.5 25.8
2017-Dec-01 00:55N 22°42' W 154°30'18 8.9 090 / 121017.1 25.3 25.6
2017-Nov-30 22:56N 22°48' W 154°12'8 8.3 090 / 141017.8 25.1 24.9
2017-Nov-30 21:57N 22°54' W 154°06'1312.6 080 / 141018.7 25.1 24.9
2017-Nov-30 20:57N 23°00' W 154°18'1111.0 080 / 151019.5 25.0 24.8
2017-Nov-30 19:57N 23°00' W 154°30'1312.6 080 / 171019.7 25.0 24.9
2017-Nov-30 18:57N 23°06' W 154°42'6 5.5 070 / 171019.5 25.0 25.4
2017-Nov-30 17:57N 23°06' W 154°48'1312.6 080 / 191018.9 24.9 25.4
2017-Nov-30 16:57N 23°12' W 155°00'1312.6 070 / 161018.4 25.1 25.5
2017-Nov-30 15:57N 23°18' W 155°12'8 8.1 060 / 211018.0 24.7 25.4
2017-Nov-30 14:57N 23°24' W 155°18'8 8.1 060 / 201017.7 24.7 25.1
2017-Nov-30 13:57N 23°30' W 155°24'8 8.1 060 / 171017.8 24.7 24.8
2017-Nov-30 12:57N 23°36' W 155°30'8 8.1 070 / 171018.1 24.7 25.0
2017-Nov-30 11:57N 23°42' W 155°36'1312.5 090 / 221018.5 24.7 25.0
2017-Nov-30 10:57N 23°48' W 155°48'8 8.1 090 / 201019.0 24.9 25.0
2017-Nov-30 09:57N 23°54' W 155°54'8 8.1 080 / 181019.5 25.0 25.1
2017-Nov-30 08:57N 24°00' W 156°00'8 8.1 070 / 171019.7 25.0 25.1
2017-Nov-30 07:57N 24°06' W 156°06'1212.5 070 / 171019.6 24.9 25.1
2017-Nov-30 06:57N 24°12' W 156°18'8 8.1 080 / 181019.8 24.9 25.0
2017-Nov-30 05:57N 24°18' W 156°24'8 8.1 080 / 171019.6 25.0 24.9
2017-Nov-30 04:57N 24°24' W 156°30'0 0.0 100 / 181019.3 24.9 25.1
2017-Nov-30 03:58N 24°24' W 156°30'5 5.5 080 / 151019.1 26.6 25.0
2017-Nov-30 02:58N 24°24' W 156°24'1212.5 090 / 141018.7 24.8 25.0
2017-Nov-30 01:58N 24°18' W 156°12'1110.9 100 / 171018.1 25.4 25.0
2017-Nov-30 00:58N 24°18' W 156°00'2311.3 080 / 131018.1 25.4 24.9
2017-Nov-29 22:58N 24°12' W 155°36'8 8.1 080 / 141019.2 25.3 25.0
2017-Nov-29 21:58N 24°06' W 155°30'5 5.5 100 / 131020.1 24.9 25.1
2017-Nov-29 20:58N 24°06' W 155°24'0 0.0 070 / 151020.4 24.7 25.1
2017-Nov-29 19:58N 24°06' W 155°24'1111.0 080 / 151020.9 24.6 25.0
2017-Nov-29 18:58N 24°06' W 155°12'1212.5 090 / 161020.6 25.0 25.1
2017-Nov-29 17:58N 24°00' W 155°00'5 5.5 090 / 161020.0 24.6 25.1
2017-Nov-29 16:58N 24°00' W 154°54'5 5.5 090 / 161019.3 24.2 24.9
2017-Nov-29 15:58N 24°00' W 154°48'0 0.0 070 / 181018.5 24.2 24.9
2017-Nov-29 14:58N 24°00' W 154°48'8 8.1 080 / 141018.1 24.3 24.9
2017-Nov-29 13:58N 24°06' W 154°42'8 8.3 080 / 131018.5 24.3 24.9
2017-Nov-29 12:59N 24°00' W 154°48'6 6.0 090 / 151018.3 24.2 24.9
2017-Nov-29 11:59N 23°54' W 154°48'8 8.1 080 / 141018.8 24.1 25.0
2017-Nov-29 10:59N 23°48' W 154°54'6 6.0 080 / 91019.5 23.6 25.0
2017-Nov-29 09:59N 23°42' W 154°54'8 8.1 090 / 231019.6 22.7 25.0
2017-Nov-29 08:59N 23°36' W 155°00'6 6.0 070 / 171019.9 24.4 24.9
2017-Nov-29 07:59N 23°30' W 155°00'8 8.1 080 / 171019.7 24.4 24.9
2017-Nov-29 06:59N 23°24' W 155°06'1313.2 080 / 141019.9 24.7 25.0
2017-Nov-29 05:59N 23°12' W 155°12'6 6.0 070 / 131019.6 24.6 25.4
2017-Nov-29 04:59N 23°06' W 155°12'8 8.2 070 / 111019.2 24.6 25.4
2017-Nov-29 03:59N 23°00' W 155°18'1313.4 070 / 121018.3 24.9 25.6
2017-Nov-29 03:00N 22°48' W 155°24'1212.0 070 / 141017.8 25.0 25.4
2017-Nov-29 02:00N 22°36' W 155°24'6 6.0 060 / 141017.3 25.1 25.4
2017-Nov-29 01:00N 22°30' W 155°24'1313.2 070 / 141016.7 25.2 25.8
2017-Nov-29 00:00N 22°18' W 155°30'6 6.0 060 / 131016.9 25.3 25.8
2017-Nov-28 23:00N 22°12' W 155°30'1212.0 060 / 151017.0 25.2 25.9
2017-Nov-28 22:00N 22°00' W 155°30'1313.2 070 / 151017.9 25.4 26.0
2017-Nov-28 21:00N 21°48' W 155°36'6 6.0 070 / 181018.2 25.7 25.9
2017-Nov-28 20:00N 21°42' W 155°36'1212.0 070 / 181019.0 25.6 26.0
2017-Nov-28 19:00N 21°30' W 155°36'8 8.2 080 / 201018.7 25.4 26.0
2017-Nov-28 18:00N 21°24' W 155°42'   080 / 221018.1 25.4 26.0
2017-Nov-22 11:47N 21°48' W 156°18'1111.1 330 / 91014.9 24.2 26.2
2017-Nov-22 10:47N 21°48' W 156°30'8 8.2 050 / 111015.4 22.5 25.9
2017-Nov-22 09:47N 21°54' W 156°36'1312.6 010 / 111015.7 23.7 25.9
2017-Nov-22 08:47N 22°00' W 156°48'6 5.7 360 / 91015.8 23.9 25.9
2017-Nov-22 07:48N 22°00' W 156°54'8 8.2 020 / 151015.9 23.7 25.9
2017-Nov-22 06:48N 22°06' W 157°00'6 5.6 080 / 91015.8 22.3 25.9
2017-Nov-22 05:48N 22°06' W 157°06'6 6.0 360 / 81015.4 21.4 25.9
2017-Nov-22 04:48N 22°00' W 157°06'6 6.0 050 / 61014.5 22.1 26.0
2017-Nov-22 03:48N 22°06' W 157°06'8 8.2 030 / 121013.6 23.5 26.0
2017-Nov-22 02:48N 22°00' W 157°12'8 8.2 040 / 101013.3 23.7 25.9
2017-Nov-22 01:48N 22°06' W 157°18'   040 / 101013.1 23.4 26.0

Dump ship's entire track history